Time;durP1;ratioP1;P1;durP2;ratioP2;P2;SDS_P1;SDS_P2;PMS_P1;PMS_P2;Temp;Humidity;BMP_temperature;BMP_pressure;BME280_temperature;BME280_humidity;BME280_pressure;Samples;Min_cycle;Max_cycle;Signal;HPM_P1;HPM_P2
2023/03/09 00:00:41;;;;;;;4.30;1.58;;;17.80;66.80;;;;;;4991496;28;20449;-75
2023/03/09 00:03:15;;;;;;;5.72;1.77;;;17.70;67.00;;;;;;4992661;28;20111;-75
2023/03/09 00:05:44;;;;;;;5.70;2.03;;;17.70;66.90;;;;;;4995645;28;20461;-75
2023/03/09 00:08:10;;;;;;;6.10;2.03;;;17.70;67.00;;;;;;4994704;28;20030;-75
2023/03/09 00:10:42;;;;;;;6.75;2.10;;;17.70;67.20;;;;;;4994981;28;20409;-75
2023/03/09 00:13:07;;;;;;;4.47;1.97;;;17.60;67.30;;;;;;4995294;28;20049;-75
2023/03/09 00:15:33;;;;;;;6.05;1.65;;;17.60;67.30;;;;;;4994798;28;20058;-75
2023/03/09 00:17:59;;;;;;;7.18;2.30;;;17.60;67.30;;;;;;4996100;28;20057;-75
2023/03/09 00:20:24;;;;;;;5.95;2.03;;;17.60;67.50;;;;;;4995876;28;20029;-75
2023/03/09 00:22:51;;;;;;;5.60;1.50;;;17.60;67.60;;;;;;4995781;28;20428;-75
2023/03/09 00:25:17;;;;;;;4.40;1.65;;;17.60;67.60;;;;;;4994640;28;20026;-75
2023/03/09 00:27:45;;;;;;;5.22;1.92;;;17.60;67.70;;;;;;4994777;28;20488;-75
2023/03/09 00:30:11;;;;;;;4.50;1.90;;;17.60;67.90;;;;;;4994391;28;20073;-75
2023/03/09 00:32:37;;;;;;;8.60;1.73;;;17.50;67.80;;;;;;4995825;28;20389;-75
2023/03/09 00:35:03;;;;;;;5.60;2.05;;;17.50;67.90;;;;;;4995873;28;20026;-75
2023/03/09 00:37:29;;;;;;;6.50;2.10;;;17.50;68.10;;;;;;4994120;28;20555;-75
2023/03/09 00:39:54;;;;;;;6.30;1.85;;;17.50;68.10;;;;;;4995806;28;20062;-75
2023/03/09 00:42:20;;;;;;;9.05;2.10;;;17.40;68.10;;;;;;4995552;28;20117;-75
2023/03/09 00:44:46;;;;;;;5.72;1.70;;;17.40;68.30;;;;;;4994376;28;20026;-76
2023/03/09 00:47:12;;;;;;;7.20;1.83;;;17.40;68.30;;;;;;4995524;28;20081;-76
2023/03/09 00:49:38;;;;;;;5.68;1.52;;;17.40;68.60;;;;;;4994130;28;20030;-75
2023/03/09 00:52:04;;;;;;;6.85;1.80;;;17.40;68.60;;;;;;4995278;28;20573;-76
2023/03/09 00:54:29;;;;;;;5.35;1.80;;;17.40;68.80;;;;;;4994057;28;20447;-75
2023/03/09 00:56:55;;;;;;;5.38;1.73;;;17.40;68.90;;;;;;4995493;28;20026;-75
2023/03/09 00:59:21;;;;;;;5.40;1.80;;;17.40;68.80;;;;;;4995226;28;20026;-75
2023/03/09 01:01:46;;;;;;;4.50;1.58;;;17.40;68.90;;;;;;4994020;28;20037;-75
2023/03/09 01:04:12;;;;;;;6.10;2.00;;;17.30;68.90;;;;;;4995206;28;20564;-75
2023/03/09 01:06:38;;;;;;;5.68;1.67;;;17.30;69.00;;;;;;4995042;28;20489;-76
2023/03/09 01:09:04;;;;;;;6.57;2.25;;;17.30;69.00;;;;;;4993719;28;20105;-75
2023/03/09 01:11:30;;;;;;;5.13;1.80;;;17.30;69.00;;;;;;4993900;28;20089;-75
2023/03/09 01:13:55;;;;;;;5.28;1.58;;;17.30;69.10;;;;;;4995183;28;20397;-75
2023/03/09 01:16:21;;;;;;;4.30;1.70;;;17.30;69.10;;;;;;4993932;28;20022;-75
2023/03/09 01:18:47;;;;;;;6.72;1.63;;;17.20;69.20;;;;;;4993641;28;20033;-75
2023/03/09 01:21:12;;;;;;;10.45;1.83;;;17.20;69.20;;;;;;4994645;28;20058;-75
2023/03/09 01:23:38;;;;;;;6.93;1.77;;;17.20;69.30;;;;;;4994796;28;20476;-75
2023/03/09 01:26:04;;;;;;;5.00;1.75;;;17.20;69.30;;;;;;4993638;28;20026;-75
2023/03/09 01:28:30;;;;;;;5.82;1.98;;;17.20;69.30;;;;;;4993661;28;20080;-75
2023/03/09 01:30:56;;;;;;;6.75;1.83;;;17.20;69.30;;;;;;4993530;28;20200;-75
2023/03/09 01:33:22;;;;;;;6.43;1.95;;;17.20;69.50;;;;;;4994599;28;20069;-75
2023/03/09 01:35:47;;;;;;;6.63;2.20;;;17.20;69.50;;;;;;4994555;28;20536;-75
2023/03/09 01:38:13;;;;;;;5.13;1.90;;;17.20;69.60;;;;;;4993499;28;20440;-76
2023/03/09 01:40:38;;;;;;;4.85;1.83;;;17.10;69.50;;;;;;4994476;28;20030;-76
2023/03/09 01:43:40;;;;;;;4.53;1.60;;;17.10;69.50;;;;;;4994700;28;20049;-75
2023/03/09 01:46:24;;;;;;;5.57;1.85;;;17.10;69.60;;;;;;5028189;28;20144;-75
2023/03/09 01:49:13;;;;;;;7.03;2.20;;;17.10;69.70;;;;;;5011864;28;20095;-75
2023/03/09 01:51:56;;;;;;;6.55;1.90;;;17.10;69.80;;;;;;5028232;28;20050;-75
2023/03/09 01:54:48;;;;;;;4.43;1.63;;;17.10;69.70;;;;;;4997379;28;20717;-75
2023/03/09 01:57:24;;;;;;;6.68;2.45;;;17.10;70.40;;;;;;4978087;28;20482;-75
2023/03/09 01:59:52;;;;;;;6.70;1.70;;;17.00;69.80;;;;;;4992300;28;20046;-75
2023/03/09 02:02:18;;;;;;;4.72;1.50;;;17.00;69.90;;;;;;4976048;28;20030;-75
2023/03/09 02:04:48;;;;;;;5.07;1.65;;;17.00;70.00;;;;;;4991848;28;20078;-75
2023/03/09 02:07:14;;;;;;;5.05;1.90;;;17.00;70.20;;;;;;4975866;28;20096;-75
2023/03/09 02:09:48;;;;;;;4.95;1.65;;;17.00;70.00;;;;;;4988764;28;20038;-75
2023/03/09 02:12:16;;;;;;;4.60;1.58;;;17.00;70.20;;;;;;4995279;28;20089;-75
2023/03/09 02:14:42;;;;;;;6.80;1.90;;;17.00;70.30;;;;;;4995040;28;20034;-75
2023/03/09 02:17:11;;;;;;;4.68;1.80;;;17.00;70.10;;;;;;5011644;28;20373;-75
2023/03/09 02:19:46;;;;;;;5.75;1.90;;;17.00;70.10;;;;;;4991742;28;20096;-75
2023/03/09 02:22:12;;;;;;;5.05;1.42;;;16.90;70.20;;;;;;4992353;28;20485;-75
2023/03/09 02:24:43;;;;;;;5.28;1.75;;;16.90;70.40;;;;;;4992464;28;20068;-76
2023/03/09 02:27:16;;;;;;;5.10;1.75;;;16.90;70.40;;;;;;4993387;28;20027;-75
2023/03/09 02:29:42;;;;;;;4.25;1.50;;;16.90;70.40;;;;;;4993623;28;20339;-75
2023/03/09 02:32:08;;;;;;;6.00;1.85;;;16.90;70.40;;;;;;4992510;28;20022;-76
2023/03/09 02:34:33;;;;;;;4.00;1.40;;;16.90;70.50;;;;;;4993313;28;20397;-76
2023/03/09 02:36:59;;;;;;;4.93;1.92;;;16.90;70.60;;;;;;4993796;28;20452;-76
2023/03/09 02:39:40;;;;;;;4.60;1.83;;;16.90;70.60;;;;;;4992137;28;20493;-76
2023/03/09 02:42:06;;;;;;;4.80;1.55;;;16.90;70.60;;;;;;4992366;28;20022;-76
2023/03/09 02:44:31;;;;;;;4.07;1.60;;;16.80;71.50;;;;;;4993460;28;20037;-75
2023/03/09 02:46:59;;;;;;;6.85;2.03;;;16.80;70.60;;;;;;4992191;28;20034;-75
2023/03/09 02:49:25;;;;;;;4.43;1.45;;;16.90;70.50;;;;;;4991985;28;20027;-76
2023/03/09 02:51:51;;;;;;;4.25;1.55;;;16.80;70.50;;;;;;4993477;28;20057;-76
2023/03/09 02:54:16;;;;;;;4.60;1.45;;;16.80;70.60;;;;;;4993119;28;20073;-76
2023/03/09 02:56:42;;;;;;;4.22;1.75;;;16.80;70.60;;;;;;4993107;28;20026;-76
2023/03/09 02:59:08;;;;;;;6.18;1.95;;;16.80;70.60;;;;;;4993248;28;20026;-76
2023/03/09 03:01:33;;;;;;;3.50;1.42;;;16.80;70.70;;;;;;4993004;28;20027;-76
2023/03/09 03:03:59;;;;;;;5.20;1.60;;;16.80;70.70;;;;;;4993191;28;20048;-76
2023/03/09 03:06:24;;;;;;;5.20;1.40;;;16.80;70.70;;;;;;4993125;28;20527;-76
2023/03/09 03:08:50;;;;;;;3.83;1.52;;;16.80;70.70;;;;;;4991787;28;20088;-76
2023/03/09 03:11:16;;;;;;;4.63;1.92;;;16.70;70.70;;;;;;4993051;28;20023;-76
2023/03/09 03:13:41;;;;;;;4.57;1.45;;;16.80;70.80;;;;;;4992124;28;20106;-76
2023/03/09 03:16:07;;;;;;;2.45;1.33;;;16.70;70.70;;;;;;4992916;28;20026;-76
2023/03/09 03:18:33;;;;;;;4.70;2.03;;;16.70;70.80;;;;;;4992715;28;20026;-76
2023/03/09 03:20:58;;;;;;;4.70;1.60;;;16.70;70.80;;;;;;4991773;28;20362;-76
2023/03/09 03:23:24;;;;;;;4.47;1.63;;;16.70;70.80;;;;;;4991550;28;20050;-76
2023/03/09 03:25:50;;;;;;;5.47;1.98;;;16.70;70.90;;;;;;4991863;28;20085;-76
2023/03/09 03:28:15;;;;;;;5.03;1.50;;;16.70;70.90;;;;;;4992920;28;20030;-76
2023/03/09 03:30:41;;;;;;;6.07;1.88;;;16.70;71.00;;;;;;4991462;28;20038;-76
2023/03/09 03:33:06;;;;;;;4.45;1.70;;;16.70;71.00;;;;;;4991970;28;20026;-76
2023/03/09 03:35:32;;;;;;;3.83;1.48;;;16.70;71.00;;;;;;4991478;28;20030;-76
2023/03/09 03:37:58;;;;;;;4.47;1.63;;;16.70;71.10;;;;;;4992830;28;20022;-76
2023/03/09 03:40:23;;;;;;;3.58;1.35;;;16.70;71.10;;;;;;4995596;28;20031;-75
2023/03/09 03:42:49;;;;;;;4.75;1.67;;;16.60;71.10;;;;;;4995630;28;20034;-75
2023/03/09 03:45:15;;;;;;;4.72;1.50;;;16.70;71.50;;;;;;4995458;28;20534;-75
2023/03/09 03:47:40;;;;;;;4.15;1.50;;;16.70;71.40;;;;;;4996617;28;20480;-75
2023/03/09 03:50:06;;;;;;;4.75;1.60;;;16.60;71.30;;;;;;4995199;28;20034;-74
2023/03/09 03:52:32;;;;;;;4.63;1.42;;;16.60;72.30;;;;;;4995577;28;20057;-75
2023/03/09 03:54:58;;;;;;;6.05;1.88;;;16.60;71.40;;;;;;4995192;28;20117;-75
2023/03/09 03:57:23;;;;;;;4.72;1.45;;;16.60;71.30;;;;;;4996393;28;20519;-75
2023/03/09 03:59:49;;;;;;;4.22;1.60;;;16.60;71.30;;;;;;4996406;28;20034;-75
2023/03/09 04:02:15;;;;;;;3.35;1.52;;;16.60;71.40;;;;;;4995354;28;20038;-75
2023/03/09 04:04:41;;;;;;;4.30;1.58;;;16.60;71.50;;;;;;4996282;28;20421;-75
2023/03/09 04:07:06;;;;;;;4.82;1.48;;;16.60;71.50;;;;;;4996304;28;20105;-75
2023/03/09 04:09:32;;;;;;;5.95;1.58;;;16.60;71.50;;;;;;4996162;28;20037;-75
2023/03/09 04:11:58;;;;;;;3.90;1.50;;;16.60;71.60;;;;;;4996233;28;20073;-75
2023/03/09 04:14:24;;;;;;;4.72;1.52;;;16.60;71.50;;;;;;4996196;28;20027;-75
2023/03/09 04:16:49;;;;;;;3.72;1.23;;;16.60;72.60;;;;;;4995852;28;20113;-75
2023/03/09 04:19:15;;;;;;;3.42;1.60;;;16.60;71.70;;;;;;4996166;28;20030;-75
2023/03/09 04:21:41;;;;;;;3.95;1.50;;;16.60;71.80;;;;;;4995861;28;20073;-75
2023/03/09 04:24:06;;;;;;;5.13;1.77;;;16.60;71.80;;;;;;4995809;28;20085;-75
2023/03/09 04:26:32;;;;;;;3.20;1.42;;;16.60;71.80;;;;;;4994845;28;20098;-75
2023/03/09 04:28:57;;;;;;;6.28;1.48;;;16.60;72.90;;;;;;4994388;28;20048;-75
2023/03/09 04:31:23;;;;;;;6.07;1.95;;;16.50;71.70;;;;;;4995887;28;20393;-75
2023/03/09 04:33:49;;;;;;;4.22;1.60;;;16.50;71.70;;;;;;4995963;28;20026;-75
2023/03/09 04:36:14;;;;;;;5.10;1.70;;;16.50;71.80;;;;;;4995942;28;20026;-75
2023/03/09 04:38:40;;;;;;;5.72;1.50;;;16.60;71.90;;;;;;4991196;28;20505;-75
2023/03/09 04:41:06;;;;;;;6.40;1.60;;;16.50;72.00;;;;;;4992411;28;20041;-75
2023/03/09 04:43:31;;;;;;;4.35;1.45;;;16.50;72.00;;;;;;4983246;28;20023;-75
2023/03/09 04:45:57;;;;;;;3.88;1.38;;;16.50;72.10;;;;;;4976752;28;20029;-76
2023/03/09 04:48:23;;;;;;;4.75;1.63;;;16.50;72.10;;;;;;4992799;28;20482;-76
2023/03/09 04:50:48;;;;;;;4.25;1.83;;;16.50;72.00;;;;;;4994294;28;20026;-76
2023/03/09 04:53:14;;;;;;;6.45;1.52;;;16.50;72.10;;;;;;4996088;28;20050;-76
2023/03/09 04:55:40;;;;;;;5.07;1.38;;;16.50;72.20;;;;;;4995929;28;20105;-76
2023/03/09 04:58:05;;;;;;;3.17;1.30;;;16.50;72.00;;;;;;4994614;28;20018;-75
2023/03/09 05:00:32;;;;;;;4.15;1.23;;;16.50;72.20;;;;;;4995932;28;20048;-76
2023/03/09 05:02:58;;;;;;;3.20;1.63;;;16.50;72.30;;;;;;4995858;28;20023;-76
2023/03/09 05:05:23;;;;;;;5.50;1.58;;;16.50;72.40;;;;;;4994743;28;20100;-76
2023/03/09 05:07:49;;;;;;;2.65;1.17;;;16.40;72.30;;;;;;4995709;28;20477;-75
2023/03/09 05:10:15;;;;;;;4.10;1.50;;;16.50;72.40;;;;;;4995639;28;20038;-75
2023/03/09 05:12:41;;;;;;;2.47;1.15;;;16.50;72.30;;;;;;4990011;28;20015;-76
2023/03/09 05:15:08;;;;;;;4.15;1.42;;;16.50;72.40;;;;;;4976353;28;20527;-76
2023/03/09 05:17:33;;;;;;;4.88;1.40;;;16.40;72.20;;;;;;4958692;28;20085;-76
2023/03/09 05:19:59;;;;;;;4.22;1.23;;;16.50;72.30;;;;;;4976172;28;20027;-75
2023/03/09 05:22:24;;;;;;;3.15;1.25;;;16.50;72.50;;;;;;4974791;28;20113;-76
2023/03/09 05:24:50;;;;;;;3.60;1.20;;;16.40;72.40;;;;;;4976108;28;20042;-76
2023/03/09 05:27:16;;;;;;;5.15;1.67;;;16.40;72.20;;;;;;4992668;28;20034;-75
2023/03/09 05:29:42;;;;;;;4.38;1.38;;;16.40;72.20;;;;;;4994184;28;20030;-76
2023/03/09 05:32:07;;;;;;;2.97;1.38;;;16.40;72.20;;;;;;4994247;28;20027;-76
2023/03/09 05:34:33;;;;;;;4.18;1.48;;;16.40;72.30;;;;;;4994220;28;20022;-76
2023/03/09 05:36:59;;;;;;;2.38;1.17;;;16.40;72.30;;;;;;4994248;28;20076;-76
2023/03/09 05:39:24;;;;;;;4.00;1.35;;;16.40;72.30;;;;;;4993882;28;20034;-76
2023/03/09 05:41:50;;;;;;;2.88;1.25;;;16.40;72.20;;;;;;4994768;28;20026;-76
2023/03/09 05:44:16;;;;;;;4.35;1.38;;;16.40;72.30;;;;;;4995339;28;20248;-75
2023/03/09 05:46:41;;;;;;;3.42;1.48;;;16.40;72.20;;;;;;4989252;28;20466;-75
2023/03/09 05:49:07;;;;;;;3.85;1.42;;;16.40;72.20;;;;;;4975799;28;20441;-75
2023/03/09 05:51:33;;;;;;;3.22;1.30;;;16.40;72.30;;;;;;4975758;28;20027;-75
2023/03/09 05:53:58;;;;;;;2.25;1.02;;;16.40;72.40;;;;;;4994922;28;20022;-75
2023/03/09 05:56:24;;;;;;;2.78;1.10;;;16.40;72.30;;;;;;4994774;28;20105;-75
2023/03/09 05:58:50;;;;;;;4.43;1.45;;;16.40;72.50;;;;;;4994767;28;20106;-75
2023/03/09 06:01:24;;;;;;;6.00;1.52;;;16.30;72.40;;;;;;4993438;28;20428;-75
2023/03/09 06:03:50;;;;;;;3.60;1.20;;;16.30;72.30;;;;;;4991467;28;20022;-75
2023/03/09 06:06:15;;;;;;;3.15;1.30;;;16.30;72.30;;;;;;4992248;28;20042;-75
2023/03/09 06:08:41;;;;;;;3.40;1.13;;;16.30;72.50;;;;;;4992299;28;20027;-75
2023/03/09 06:11:07;;;;;;;3.22;1.50;;;16.30;72.60;;;;;;4991151;28;20023;-75
2023/03/09 06:13:33;;;;;;;2.75;1.05;;;16.30;72.70;;;;;;4991240;28;20030;-75
2023/03/09 06:16:01;;;;;;;2.28;1.10;;;16.30;72.80;;;;;;4992358;28;20014;-76
2023/03/09 06:18:27;;;;;;;4.25;1.52;;;16.30;72.80;;;;;;4991155;28;20401;-76
2023/03/09 06:20:53;;;;;;;3.60;1.40;;;16.30;73.00;;;;;;4992076;28;20022;-76
2023/03/09 06:23:18;;;;;;;3.15;1.33;;;16.30;72.90;;;;;;4990990;28;20133;-75
2023/03/09 06:25:44;;;;;;;2.90;1.23;;;16.30;73.00;;;;;;4992010;28;20050;-76
2023/03/09 06:28:10;;;;;;;5.22;1.80;;;16.30;72.90;;;;;;4992070;28;20034;-75
2023/03/09 06:30:39;;;;;;;3.03;1.20;;;16.30;73.00;;;;;;4992203;28;20068;-75
2023/03/09 06:33:04;;;;;;;3.20;1.30;;;16.30;72.80;;;;;;4974719;28;20038;-75
2023/03/09 06:35:30;;;;;;;4.22;1.13;;;16.30;73.00;;;;;;4992093;28;20015;-75
2023/03/09 06:37:56;;;;;;;3.42;1.10;;;16.30;73.00;;;;;;4991893;28;20034;-75
2023/03/09 06:40:21;;;;;;;3.28;1.15;;;16.30;72.90;;;;;;4991819;28;20492;-76
2023/03/09 06:42:47;;;;;;;3.63;1.58;;;16.30;72.90;;;;;;4991894;28;20037;-76
2023/03/09 06:45:12;;;;;;;3.78;1.20;;;16.30;72.90;;;;;;4991860;28;20023;-76
2023/03/09 06:47:38;;;;;;;2.40;1.10;;;16.30;72.90;;;;;;4991817;28;20033;-76
2023/03/09 06:50:04;;;;;;;3.88;1.20;;;16.30;72.80;;;;;;4991686;28;20034;-75
2023/03/09 06:52:30;;;;;;;4.07;1.35;;;16.30;73.10;;;;;;4990640;28;20022;-75
2023/03/09 06:54:55;;;;;;;2.67;1.30;;;16.30;72.80;;;;;;4991424;28;20022;-76
2023/03/09 06:57:21;;;;;;;3.97;1.17;;;16.30;73.00;;;;;;4992236;28;20027;-75
2023/03/09 06:59:47;;;;;;;2.45;1.27;;;16.30;72.90;;;;;;4990544;28;20022;-76
2023/03/09 07:02:13;;;;;;;3.28;1.30;;;16.30;73.00;;;;;;4994529;28;20026;-76
2023/03/09 07:04:38;;;;;;;5.85;1.33;;;16.20;73.00;;;;;;4994935;28;20030;-75
2023/03/09 07:07:04;;;;;;;4.72;1.20;;;16.30;73.10;;;;;;4994179;28;20026;-74
2023/03/09 07:09:32;;;;;;;3.45;1.40;;;16.30;72.70;;;;;;4993328;28;20508;-73
2023/03/09 07:11:58;;;;;;;3.15;1.33;;;16.30;71.80;;;;;;4993528;28;20023;-73
2023/03/09 07:14:25;;;;;;;3.65;1.40;;;16.30;71.10;;;;;;4993969;28;20108;-73
2023/03/09 07:16:52;;;;;;;4.15;1.35;;;16.30;70.60;;;;;;4995651;28;20492;-74
2023/03/09 07:19:17;;;;;;;5.90;1.30;;;16.30;70.20;;;;;;4994519;28;20500;-74
2023/03/09 07:21:43;;;;;;;2.58;1.20;;;16.30;70.20;;;;;;4996703;28;20030;-73
2023/03/09 07:24:08;;;;;;;3.42;1.02;;;16.30;69.90;;;;;;4995952;28;20161;-74
2023/03/09 07:26:34;;;;;;;2.00;1.10;;;16.40;69.80;;;;;;4995888;28;20114;-74
2023/03/09 07:29:00;;;;;;;2.25;1.10;;;16.40;69.70;;;;;;4994082;28;20029;-74
2023/03/09 07:31:28;;;;;;;3.60;1.48;;;16.40;69.60;;;;;;4994123;28;20105;-74
2023/03/09 07:33:57;;;;;;;3.40;1.05;;;16.40;69.50;;;;;;4994727;28;20025;-74
2023/03/09 07:36:23;;;;;;;4.05;1.40;;;16.40;69.40;;;;;;4993822;28;20046;-74
2023/03/09 07:38:49;;;;;;;3.15;1.27;;;16.40;69.30;;;;;;4991513;28;20444;-73
2023/03/09 07:41:15;;;;;;;4.43;1.25;;;16.40;69.20;;;;;;4993505;28;20122;-75
2023/03/09 07:43:43;;;;;;;5.25;1.50;;;16.40;69.20;;;;;;4993680;28;20101;-76
2023/03/09 07:46:13;;;;;;;5.47;1.60;;;16.50;70.10;;;;;;4993616;28;20022;-75
2023/03/09 07:48:39;;;;;;;7.28;1.50;;;16.50;70.70;;;;;;4989131;28;20476;-75
2023/03/09 07:51:05;;;;;;;4.40;1.73;;;16.50;71.00;;;;;;4992368;28;20022;-75
2023/03/09 07:53:32;;;;;;;3.88;1.40;;;16.50;70.80;;;;;;4992609;28;20080;-75
2023/03/09 07:55:58;;;;;;;4.15;1.38;;;16.50;70.80;;;;;;4991380;28;20023;-75
2023/03/09 07:58:24;;;;;;;4.10;1.50;;;16.60;70.70;;;;;;4992645;28;20026;-75
2023/03/09 08:00:49;;;;;;;3.20;1.23;;;16.50;70.50;;;;;;4990077;28;20030;-75
2023/03/09 08:03:15;;;;;;;4.82;1.30;;;16.60;70.50;;;;;;4987899;28;20038;-75
2023/03/09 08:05:41;;;;;;;6.57;1.85;;;16.50;70.40;;;;;;4981471;28;20554;-75
2023/03/09 08:08:07;;;;;;;4.82;1.35;;;16.60;70.30;;;;;;4979336;28;20034;-75
2023/03/09 08:10:33;;;;;;;3.88;1.60;;;16.60;70.20;;;;;;4972137;28;20402;-75
2023/03/09 08:12:59;;;;;;;3.10;1.42;;;16.60;70.20;;;;;;4986230;28;20034;-75
2023/03/09 08:15:25;;;;;;;5.88;1.60;;;16.60;70.00;;;;;;4991048;28;20086;-75
2023/03/09 08:17:50;;;;;;;6.35;1.52;;;16.60;69.90;;;;;;4992368;28;20023;-75
2023/03/09 08:20:16;;;;;;;3.92;1.38;;;16.60;69.90;;;;;;4985578;28;20029;-75
2023/03/09 08:22:42;;;;;;;2.53;1.35;;;16.60;69.80;;;;;;4971476;28;20054;-75
2023/03/09 08:25:08;;;;;;;3.72;1.45;;;16.60;69.80;;;;;;4973730;28;20058;-75
2023/03/09 08:27:39;;;;;;;5.57;1.23;;;16.60;69.70;;;;;;4976568;28;20089;-75
2023/03/09 08:30:05;;;;;;;4.22;1.45;;;16.60;69.70;;;;;;4975074;28;20019;-75
2023/03/09 08:32:30;;;;;;;3.25;1.10;;;16.60;69.60;;;;;;4976392;28;20034;-75
2023/03/09 08:34:56;;;;;;;6.03;1.20;;;16.60;69.60;;;;;;4976351;28;20023;-75
2023/03/09 08:37:22;;;;;;;4.38;1.60;;;16.60;69.60;;;;;;4964446;28;20064;-75
2023/03/09 08:39:50;;;;;;;5.78;1.50;;;16.60;69.60;;;;;;4995525;28;20022;-75
2023/03/09 08:42:16;;;;;;;2.50;1.25;;;16.60;69.60;;;;;;4995809;28;20137;-75
2023/03/09 08:44:42;;;;;;;3.67;1.30;;;16.60;69.60;;;;;;4995800;28;20118;-75
2023/03/09 08:47:07;;;;;;;3.35;1.08;;;16.70;69.70;;;;;;4994396;28;20038;-75
2023/03/09 08:49:34;;;;;;;4.88;1.40;;;16.70;69.60;;;;;;4995571;28;20072;-75
2023/03/09 08:51:59;;;;;;;3.95;1.33;;;16.70;69.70;;;;;;4994019;28;20027;-75
2023/03/09 08:54:25;;;;;;;2.47;1.10;;;16.70;69.70;;;;;;4995715;28;20384;-75
2023/03/09 08:56:51;;;;;;;3.92;1.40;;;16.70;69.60;;;;;;4994239;28;20477;-75
2023/03/09 08:59:17;;;;;;;4.50;1.30;;;16.70;69.70;;;;;;4995261;28;20030;-75
2023/03/09 09:01:42;;;;;;;3.95;1.70;;;16.70;69.60;;;;;;4995511;28;20617;-75
2023/03/09 09:04:08;;;;;;;4.38;1.50;;;16.70;69.60;;;;;;4995158;28;20030;-75
2023/03/09 09:06:34;;;;;;;4.40;1.40;;;16.70;69.50;;;;;;4995105;28;20033;-75
2023/03/09 09:08:59;;;;;;;4.40;1.30;;;16.70;69.50;;;;;;4993829;28;20045;-75
2023/03/09 09:11:25;;;;;;;2.88;1.30;;;16.70;69.50;;;;;;4977751;28;20097;-75
2023/03/09 09:13:54;;;;;;;3.67;1.50;;;16.70;69.50;;;;;;4995204;28;20026;-75
2023/03/09 09:16:20;;;;;;;3.45;1.42;;;16.70;69.50;;;;;;4995150;28;20026;-75
2023/03/09 09:18:46;;;;;;;5.20;1.83;;;16.70;69.40;;;;;;4993639;28;20018;-75
2023/03/09 09:21:13;;;;;;;3.25;1.13;;;16.70;69.40;;;;;;4993698;28;20476;-75
2023/03/09 09:23:40;;;;;;;3.38;1.40;;;16.70;69.40;;;;;;4993706;28;20053;-75
2023/03/09 09:26:06;;;;;;;2.45;1.27;;;16.70;69.40;;;;;;4993531;28;20057;-75
2023/03/09 09:28:31;;;;;;;3.33;1.30;;;16.70;69.30;;;;;;4993932;28;20014;-75
2023/03/09 09:30:58;;;;;;;2.40;1.05;;;16.70;69.20;;;;;;4994842;28;20035;-75
2023/03/09 09:33:26;;;;;;;4.65;1.67;;;16.70;69.20;;;;;;4993391;28;20029;-75
2023/03/09 09:35:59;;;;;;;2.47;1.08;;;16.70;69.20;;;;;;4993390;28;20025;-75
2023/03/09 09:38:25;;;;;;;2.70;0.98;;;16.70;69.20;;;;;;4993042;28;20481;-75
2023/03/09 09:40:52;;;;;;;3.25;1.23;;;16.70;69.20;;;;;;4993339;28;20511;-75
2023/03/09 09:43:18;;;;;;;2.92;1.38;;;16.70;69.10;;;;;;4993375;28;20042;-75
2023/03/09 09:45:44;;;;;;;4.05;1.30;;;16.70;69.10;;;;;;4993558;28;20057;-75
2023/03/09 09:48:17;;;;;;;2.65;1.20;;;16.70;69.10;;;;;;4993194;28;20034;-75
2023/03/09 09:51:00;;;;;;;2.47;1.00;;;16.70;69.00;;;;;;4993081;28;20559;-75
2023/03/09 09:53:32;;;;;;;4.70;1.50;;;16.70;69.00;;;;;;4993478;28;20018;-75
2023/03/09 09:55:59;;;;;;;3.33;1.30;;;16.70;69.00;;;;;;4993174;28;20030;-75
2023/03/09 09:58:37;;;;;;;2.95;1.23;;;16.70;69.00;;;;;;4993243;28;20046;-75
2023/03/09 10:01:06;;;;;;;4.13;1.33;;;16.70;68.90;;;;;;4993174;28;20065;-75
2023/03/09 10:03:36;;;;;;;3.15;0.90;;;16.70;68.90;;;;;;4992580;28;20026;-75
2023/03/09 10:06:16;;;;;;;2.83;1.08;;;16.70;68.90;;;;;;4976831;28;20477;-75
2023/03/09 10:09:00;;;;;;;3.08;1.38;;;16.70;68.80;;;;;;4977781;28;20026;-75
2023/03/09 10:11:38;;;;;;;3.05;1.23;;;16.70;68.80;;;;;;4960802;28;20432;-75
2023/03/09 10:14:19;;;;;;;5.22;1.23;;;16.70;68.80;;;;;;4992744;28;20015;-75
2023/03/09 10:16:48;;;;;;;1.67;0.88;;;16.70;68.80;;;;;;4993700;28;20080;-75
2023/03/09 10:19:34;;;;;;;1.92;1.08;;;16.70;68.80;;;;;;4992657;28;20034;-75
2023/03/09 10:22:21;;;;;;;1.85;0.90;;;16.70;68.80;;;;;;4992506;28;20421;-75
2023/03/09 10:24:51;;;;;;;2.13;1.00;;;16.70;68.70;;;;;;5025345;28;20034;-75
2023/03/09 10:27:31;;;;;;;3.63;1.20;;;16.70;68.70;;;;;;4992633;28;20068;-75
2023/03/09 10:30:26;;;;;;;3.53;1.02;;;16.70;68.70;;;;;;4992497;28;20399;-75
2023/03/09 10:32:54;;;;;;;4.97;1.70;;;16.70;68.60;;;;;;4992551;28;20030;-75
2023/03/09 10:35:31;;;;;;;2.42;1.02;;;16.70;68.70;;;;;;4992353;28;20015;-75
2023/03/09 10:37:56;;;;;;;2.80;1.00;;;16.70;68.70;;;;;;4992573;28;20073;-75
2023/03/09 10:40:24;;;;;;;2.22;1.00;;;16.70;68.60;;;;;;4993464;28;20023;-75
2023/03/09 10:42:50;;;;;;;2.55;0.90;;;16.70;68.70;;;;;;4992484;28;20026;-75
2023/03/09 10:45:22;;;;;;;2.38;1.05;;;16.70;68.50;;;;;;4992341;28;20420;-75
2023/03/09 10:48:06;;;;;;;2.75;0.90;;;16.70;68.60;;;;;;4991758;28;20045;-75
2023/03/09 10:50:34;;;;;;;2.42;0.90;;;16.70;68.50;;;;;;4992183;28;20030;-75
2023/03/09 10:53:20;;;;;;;1.55;0.77;;;16.70;68.50;;;;;;4992170;28;20041;-75
2023/03/09 10:55:46;;;;;;;2.28;1.00;;;16.70;68.50;;;;;;4975916;28;20429;-75
2023/03/09 10:58:13;;;;;;;2.22;1.02;;;16.70;68.50;;;;;;4991903;28;20057;-75
2023/03/09 11:00:58;;;;;;;1.48;0.73;;;16.70;68.50;;;;;;4993045;28;20057;-75
2023/03/09 11:03:30;;;;;;;1.55;0.80;;;16.70;68.40;;;;;;4992879;28;20432;-75
2023/03/09 11:06:07;;;;;;;1.73;0.80;;;16.70;68.40;;;;;;4993218;28;20025;-75
2023/03/09 11:08:33;;;;;;;1.08;0.82;;;16.70;68.40;;;;;;4992087;28;20109;-75
2023/03/09 11:11:05;;;;;;;2.28;0.90;;;16.70;68.40;;;;;;4991784;28;20101;-75
2023/03/09 11:13:30;;;;;;;1.85;0.88;;;16.70;68.40;;;;;;4991791;28;20026;-75
2023/03/09 11:16:26;;;;;;;1.80;0.98;;;16.70;68.30;;;;;;4975316;28;20093;-75
2023/03/09 11:19:14;;;;;;;1.60;0.77;;;16.70;68.30;;;;;;4991885;28;20023;-75
2023/03/09 11:22:01;;;;;;;2.42;1.40;;;16.70;68.30;;;;;;4993043;28;20098;-75
2023/03/09 11:24:29;;;;;;;1.30;0.88;;;16.70;68.30;;;;;;5024699;28;20031;-75
2023/03/09 11:27:01;;;;;;;1.48;0.80;;;16.70;68.20;;;;;;4991718;28;20030;-75
2023/03/09 11:29:51;;;;;;;2.72;0.90;;;16.70;68.20;;;;;;4991523;28;20058;-75
2023/03/09 11:32:17;;;;;;;1.63;0.73;;;16.70;68.20;;;;;;4992847;28;20023;-75
2023/03/09 11:34:42;;;;;;;1.13;0.50;;;16.70;68.20;;;;;;4991665;28;20022;-75
2023/03/09 11:37:18;;;;;;;1.33;0.80;;;16.70;68.20;;;;;;4991714;28;20488;-75
2023/03/09 11:40:05;;;;;;;1.77;0.70;;;16.70;68.20;;;;;;4991808;28;20018;-75
2023/03/09 11:42:57;;;;;;;1.25;0.45;;;16.70;68.20;;;;;;4992966;28;20031;-75
2023/03/09 11:45:25;;;;;;;1.83;0.60;;;16.70;68.10;;;;;;4991373;28;20507;-75
2023/03/09 11:48:19;;;;;;;1.90;0.60;;;16.70;68.20;;;;;;4991700;28;20477;-75
2023/03/09 11:50:48;;;;;;;0.88;0.60;;;16.70;68.10;;;;;;4991738;28;20114;-75
2023/03/09 11:53:18;;;;;;;1.92;0.65;;;16.70;68.40;;;;;;4992378;28;20496;-75
2023/03/09 11:55:48;;;;;;;1.80;0.95;;;16.70;68.20;;;;;;4991664;28;20027;-75
2023/03/09 11:58:17;;;;;;;1.77;0.70;;;16.70;68.20;;;;;;4991112;28;20444;-75
2023/03/09 12:00:48;;;;;;;1.40;0.63;;;16.70;68.10;;;;;;4993121;28;20022;-75
2023/03/09 12:03:16;;;;;;;1.58;0.82;;;16.70;68.10;;;;;;4995233;28;20038;-75
2023/03/09 12:05:47;;;;;;;1.95;0.70;;;16.70;68.10;;;;;;4995200;28;20076;-75
2023/03/09 12:08:20;;;;;;;2.03;0.80;;;16.70;68.10;;;;;;4995346;28;20034;-75
2023/03/09 12:10:57;;;;;;;1.13;0.70;;;16.70;68.10;;;;;;4994985;28;20098;-75
2023/03/09 12:13:28;;;;;;;1.30;0.65;;;16.70;68.10;;;;;;4991644;28;20029;-75
2023/03/09 12:16:00;;;;;;;1.27;0.50;;;16.70;68.10;;;;;;4991559;28;20050;-75
2023/03/09 12:18:33;;;;;;;1.30;0.57;;;16.70;68.10;;;;;;4976923;28;20038;-75
2023/03/09 12:21:00;;;;;;;2.53;0.82;;;16.70;68.00;;;;;;4991574;28;20031;-75
2023/03/09 12:23:34;;;;;;;0.80;0.52;;;16.70;68.10;;;;;;4991316;28;20046;-75
2023/03/09 12:26:00;;;;;;;1.08;0.52;;;16.70;68.10;;;;;;4976514;28;20026;-75
2023/03/09 12:28:26;;;;;;;0.70;0.55;;;16.70;68.00;;;;;;4991502;28;20155;-75
2023/03/09 12:30:56;;;;;;;1.02;0.50;;;16.70;68.00;;;;;;4976455;28;20030;-75
2023/03/09 12:34:00;;;;;;;0.98;0.50;;;16.70;68.00;;;;;;4991335;28;20023;-75
2023/03/09 12:36:30;;;;;;;1.00;0.70;;;16.70;68.00;;;;;;4976359;28;20022;-75
2023/03/09 12:39:33;;;;;;;1.92;0.80;;;16.70;68.60;;;;;;4991031;28;20027;-75
2023/03/09 12:41:59;;;;;;;2.10;0.70;;;16.70;68.00;;;;;;4976134;28;20417;-75
2023/03/09 12:44:43;;;;;;;1.13;0.40;;;16.70;68.00;;;;;;4991539;28;20026;-75
2023/03/09 12:47:22;;;;;;;1.33;0.70;;;16.70;68.00;;;;;;4976183;28;20038;-75
2023/03/09 12:49:48;;;;;;;1.20;0.63;;;16.70;68.00;;;;;;4976251;28;20034;-75
2023/03/09 12:52:46;;;;;;;1.73;0.80;;;16.70;68.00;;;;;;4990948;28;20022;-75
2023/03/09 12:55:20;;;;;;;1.13;0.60;;;16.70;68.00;;;;;;4973955;28;20051;-75